sensor_id;sensor_type;location;lat;lon;timestamp;pressure;altitude;pressure_sealevel;temperature;humidity
64243;BME280;50573;51.512;5.386;2023-05-16T00:01:28;77536.06;;;10.20;97.56
64243;BME280;50573;51.512;5.386;2023-05-16T00:11:31;77528.63;;;10.04;97.96
64243;BME280;50573;51.512;5.386;2023-05-16T00:21:35;77494.25;;;9.81;98.83
64243;BME280;50573;51.512;5.386;2023-05-16T00:31:38;77458.50;;;9.52;99.32
64243;BME280;50573;51.512;5.386;2023-05-16T00:41:43;77421.59;;;9.22;100.00
64243;BME280;50573;51.512;5.386;2023-05-16T00:51:47;77403.78;;;9.04;100.00
64243;BME280;50573;51.512;5.386;2023-05-16T01:01:52;77381.41;;;8.82;100.00
64243;BME280;50573;51.512;5.386;2023-05-16T01:12:03;77371.25;;;8.66;100.00
64243;BME280;50573;51.512;5.386;2023-05-16T01:22:19;77350.31;;;8.50;100.00
64243;BME280;50573;51.512;5.386;2023-05-16T01:32:24;77335.34;;;8.34;100.00
64243;BME280;50573;51.512;5.386;2023-05-16T01:42:29;77304.59;;;8.16;100.00
64243;BME280;50573;51.512;5.386;2023-05-16T01:52:39;77300.56;;;8.03;100.00
64243;BME280;50573;51.512;5.386;2023-05-16T02:02:43;77296.13;;;7.92;100.00
64243;BME280;50573;51.512;5.386;2023-05-16T02:12:49;77273.22;;;7.79;100.00
64243;BME280;50573;51.512;5.386;2023-05-16T02:22:52;77239.25;;;7.61;100.00
64243;BME280;50573;51.512;5.386;2023-05-16T02:32:56;77232.13;;;7.50;100.00
64243;BME280;50573;51.512;5.386;2023-05-16T02:42:59;77215.19;;;7.38;100.00
64243;BME280;50573;51.512;5.386;2023-05-16T02:53:04;77218.63;;;7.41;100.00
64243;BME280;50573;51.512;5.386;2023-05-16T03:03:07;77224.09;;;7.34;100.00
64243;BME280;50573;51.512;5.386;2023-05-16T03:13:11;77207.72;;;7.22;100.00
64243;BME280;50573;51.512;5.386;2023-05-16T03:23:14;77186.56;;;7.10;100.00
64243;BME280;50573;51.512;5.386;2023-05-16T03:33:19;77182.09;;;6.99;100.00
64243;BME280;50573;51.512;5.386;2023-05-16T03:43:22;77162.66;;;6.89;100.00
64243;BME280;50573;51.512;5.386;2023-05-16T03:53:26;77145.19;;;6.76;100.00
64243;BME280;50573;51.512;5.386;2023-05-16T04:03:29;77138.91;;;6.70;100.00
64243;BME280;50573;51.512;5.386;2023-05-16T04:13:35;77135.31;;;6.65;100.00
64243;BME280;50573;51.512;5.386;2023-05-16T04:23:38;77130.22;;;6.60;100.00
64243;BME280;50573;51.512;5.386;2023-05-16T04:33:43;77144.03;;;6.75;100.00
64243;BME280;50573;51.512;5.386;2023-05-16T04:43:46;77161.09;;;6.90;100.00
64243;BME280;50573;51.512;5.386;2023-05-16T04:53:51;77194.63;;;7.10;100.00
64243;BME280;50573;51.512;5.386;2023-05-16T05:03:53;77215.19;;;7.38;100.00
64243;BME280;50573;51.512;5.386;2023-05-16T05:13:58;77265.66;;;7.70;100.00
64243;BME280;50573;51.512;5.386;2023-05-16T05:24:01;77292.63;;;8.06;100.00
64243;BME280;50573;51.512;5.386;2023-05-16T05:34:06;77334.66;;;8.40;100.00
64243;BME280;50573;51.512;5.386;2023-05-16T05:44:09;77393.31;;;8.83;100.00
64243;BME280;50573;51.512;5.386;2023-05-16T05:54:13;77422.00;;;9.20;98.34
64243;BME280;50573;51.512;5.386;2023-05-16T06:04:16;77481.84;;;9.63;95.33
64243;BME280;50573;51.512;5.386;2023-05-16T06:14:21;77512.50;;;9.97;92.77
64243;BME280;50573;51.512;5.386;2023-05-16T06:24:24;77552.63;;;10.35;90.12
64243;BME280;50573;51.512;5.386;2023-05-16T06:34:29;77587.41;;;10.65;88.66
64243;BME280;50573;51.512;5.386;2023-05-16T06:44:33;77630.91;;;11.06;86.88
64243;BME280;50573;51.512;5.386;2023-05-16T06:54:37;77657.00;;;11.17;82.37
64243;BME280;50573;51.512;5.386;2023-05-16T07:04:40;77665.72;;;11.37;81.65
64243;BME280;50573;51.512;5.386;2023-05-16T07:14:45;77698.13;;;11.63;76.55
64243;BME280;50573;51.512;5.386;2023-05-16T07:24:48;77773.38;;;12.26;74.80
64243;BME280;50573;51.512;5.386;2023-05-16T07:34:55;77822.22;;;12.74;71.63
64243;BME280;50573;51.512;5.386;2023-05-16T07:44:58;77886.66;;;13.28;69.50
64243;BME280;50573;51.512;5.386;2023-05-16T07:55:02;77916.38;;;13.54;66.10
64243;BME280;50573;51.512;5.386;2023-05-16T08:05:06;77936.94;;;13.72;66.97
64243;BME280;50573;51.512;5.386;2023-05-16T08:15:11;77934.81;;;13.73;67.28
64243;BME280;50573;51.512;5.386;2023-05-16T08:25:14;77955.34;;;13.91;65.16
64243;BME280;50573;51.512;5.386;2023-05-16T08:35:19;77950.50;;;13.82;63.46
64243;BME280;50573;51.512;5.386;2023-05-16T08:45:22;78045.63;;;14.58;62.91
64243;BME280;50573;51.512;5.386;2023-05-16T08:55:26;78029.00;;;14.53;64.53
64243;BME280;50573;51.512;5.386;2023-05-16T09:05:31;78075.31;;;14.94;62.14
64243;BME280;50573;51.512;5.386;2023-05-16T09:15:36;78003.97;;;14.34;62.67
64243;BME280;50573;51.512;5.386;2023-05-16T09:25:39;78041.00;;;14.64;61.30
64243;BME280;50573;51.512;5.386;2023-05-16T09:35:43;78092.91;;;15.07;58.41
64243;BME280;50573;51.512;5.386;2023-05-16T09:45:47;78087.91;;;15.05;58.70
64243;BME280;50573;51.512;5.386;2023-05-16T09:56:00;78034.72;;;14.58;62.34
64243;BME280;50573;51.512;5.386;2023-05-16T10:06:04;78078.16;;;14.96;59.65
64243;BME280;50573;51.512;5.386;2023-05-16T10:16:10;78084.59;;;15.04;54.67
64243;BME280;50573;51.512;5.386;2023-05-16T10:26:15;78142.53;;;15.58;54.94
64243;BME280;50573;51.512;5.386;2023-05-16T10:36:19;78144.00;;;15.54;53.64
64243;BME280;50573;51.512;5.386;2023-05-16T10:46:23;78229.38;;;16.31;51.90
64243;BME280;50573;51.512;5.386;2023-05-16T10:56:28;78191.75;;;16.01;54.07
64243;BME280;50573;51.512;5.386;2023-05-16T11:06:49;78249.09;;;16.53;51.90
64243;BME280;50573;51.512;5.386;2023-05-16T11:17:00;78271.06;;;16.66;53.15
64243;BME280;50573;51.512;5.386;2023-05-16T11:27:05;78312.41;;;17.04;50.51
64243;BME280;50573;51.512;5.386;2023-05-16T11:37:11;78306.13;;;16.99;51.89
64243;BME280;50573;51.512;5.386;2023-05-16T11:47:14;78313.41;;;17.03;52.53
64243;BME280;50573;51.512;5.386;2023-05-16T11:57:19;78275.66;;;16.70;53.39
64243;BME280;50573;51.512;5.386;2023-05-16T12:07:26;78394.31;;;17.76;49.09
64243;BME280;50573;51.512;5.386;2023-05-16T12:17:31;78380.44;;;17.61;48.31
64243;BME280;50573;51.512;5.386;2023-05-16T12:27:35;78328.31;;;17.16;48.62
64243;BME280;50573;51.512;5.386;2023-05-16T12:37:43;78269.34;;;16.64;51.37
64243;BME280;50573;51.512;5.386;2023-05-16T12:47:46;78233.25;;;16.32;50.94
64243;BME280;50573;51.512;5.386;2023-05-16T12:57:51;78222.94;;;16.23;49.95
64243;BME280;50573;51.512;5.386;2023-05-16T13:07:57;78256.78;;;16.43;49.73
64243;BME280;50573;51.512;5.386;2023-05-16T13:18:01;78212.06;;;16.14;52.78
64243;BME280;50573;51.512;5.386;2023-05-16T13:28:04;78166.84;;;15.74;53.87
64243;BME280;50573;51.512;5.386;2023-05-16T13:38:09;78171.72;;;15.83;54.18
64243;BME280;50573;51.512;5.386;2023-05-16T13:48:11;78103.91;;;15.19;56.57
64243;BME280;50573;51.512;5.386;2023-05-16T13:58:16;78162.13;;;15.77;55.85
64243;BME280;50573;51.512;5.386;2023-05-16T14:08:19;78134.97;;;15.49;56.50
64243;BME280;50573;51.512;5.386;2023-05-16T14:18:23;78092.59;;;15.11;57.33
64243;BME280;50573;51.512;5.386;2023-05-16T14:28:27;78165.28;;;15.75;54.33
64243;BME280;50573;51.512;5.386;2023-05-16T14:38:31;78199.50;;;16.03;53.62
64243;BME280;50573;51.512;5.386;2023-05-16T14:48:34;78103.91;;;15.19;54.30
64243;BME280;50573;51.512;5.386;2023-05-16T14:58:38;78091.31;;;15.08;55.14
64243;BME280;50573;51.512;5.386;2023-05-16T15:08:41;78100.63;;;15.18;56.15
64243;BME280;50573;51.512;5.386;2023-05-16T15:18:46;78145.13;;;15.55;54.61
64243;BME280;50573;51.512;5.386;2023-05-16T15:28:49;78275.19;;;16.72;48.50
64243;BME280;50573;51.512;5.386;2023-05-16T15:38:54;78326.16;;;17.16;48.19
64243;BME280;50573;51.512;5.386;2023-05-16T15:48:57;78238.97;;;16.37;49.24
64243;BME280;50573;51.512;5.386;2023-05-16T15:59:01;78185.91;;;15.93;50.10
64243;BME280;50573;51.512;5.386;2023-05-16T16:09:04;78147.84;;;15.55;52.28
64243;BME280;50573;51.512;5.386;2023-05-16T16:19:09;78118.78;;;15.32;54.91
64243;BME280;50573;51.512;5.386;2023-05-16T16:29:12;78068.00;;;14.90;54.29
64243;BME280;50573;51.512;5.386;2023-05-16T16:39:16;78072.31;;;14.89;55.50
64243;BME280;50573;51.512;5.386;2023-05-16T16:49:19;78078.44;;;15.01;56.74
64243;BME280;50573;51.512;5.386;2023-05-16T16:59:24;78072.44;;;14.91;56.18
64243;BME280;50573;51.512;5.386;2023-05-16T17:09:27;78066.88;;;14.89;57.49
64243;BME280;50573;51.512;5.386;2023-05-16T17:19:31;78066.16;;;14.86;57.77
64243;BME280;50573;51.512;5.386;2023-05-16T17:29:34;78070.44;;;14.94;57.96
64243;BME280;50573;51.512;5.386;2023-05-16T17:39:39;78071.34;;;14.81;58.39
64243;BME280;50573;51.512;5.386;2023-05-16T17:49:42;78023.84;;;14.49;60.31
64243;BME280;50573;51.512;5.386;2023-05-16T17:59:48;78003.28;;;14.31;61.06
64243;BME280;50573;51.512;5.386;2023-05-16T18:09:51;77991.22;;;14.20;64.01
64243;BME280;50573;51.512;5.386;2023-05-16T18:19:55;77978.09;;;14.09;66.74
64243;BME280;50573;51.512;5.386;2023-05-16T18:29:59;78009.56;;;14.36;66.29
64243;BME280;50573;51.512;5.386;2023-05-16T18:40:06;77972.25;;;13.91;68.37
64243;BME280;50573;51.512;5.386;2023-05-16T18:50:09;77907.94;;;13.49;71.98
64243;BME280;50573;51.512;5.386;2023-05-16T19:00:15;77877.38;;;13.08;73.61
64243;BME280;50573;51.512;5.386;2023-05-16T19:10:18;77835.78;;;12.74;75.80
64243;BME280;50573;51.512;5.386;2023-05-16T19:20:22;77793.50;;;12.37;77.73
64243;BME280;50573;51.512;5.386;2023-05-16T19:30:25;77759.25;;;12.07;80.60
64243;BME280;50573;51.512;5.386;2023-05-16T19:40:31;77715.84;;;11.78;82.95
64243;BME280;50573;51.512;5.386;2023-05-16T19:50:34;77681.00;;;11.48;85.82
64243;BME280;50573;51.512;5.386;2023-05-16T20:00:38;77658.59;;;11.26;87.47
64243;BME280;50573;51.512;5.386;2023-05-16T20:10:42;77635.19;;;11.05;89.81
64243;BME280;50573;51.512;5.386;2023-05-16T20:20:47;77605.97;;;10.86;90.64
64243;BME280;50573;51.512;5.386;2023-05-16T20:30:49;77602.09;;;10.66;92.54
64243;BME280;50573;51.512;5.386;2023-05-16T20:40:54;77578.28;;;10.48;93.33
64243;BME280;50573;51.512;5.386;2023-05-16T20:50:57;77562.31;;;10.34;94.06
64243;BME280;50573;51.512;5.386;2023-05-16T21:01:03;77538.47;;;10.15;96.28
64243;BME280;50573;51.512;5.386;2023-05-16T21:11:06;77512.09;;;9.99;96.95
64243;BME280;50573;51.512;5.386;2023-05-16T21:21:10;77493.84;;;9.83;99.17
64243;BME280;50573;51.512;5.386;2023-05-16T21:31:13;77488.13;;;9.68;98.57
64243;BME280;50573;51.512;5.386;2023-05-16T21:41:18;77468.75;;;9.51;100.00
64243;BME280;50573;51.512;5.386;2023-05-16T21:51:22;77441.41;;;9.37;99.60
64243;BME280;50573;51.512;5.386;2023-05-16T22:01:26;77426.59;;;9.24;100.00
64243;BME280;50573;51.512;5.386;2023-05-16T22:11:30;77407.75;;;9.07;100.00
64243;BME280;50573;51.512;5.386;2023-05-16T22:21:34;77405.88;;;8.94;100.00
64243;BME280;50573;51.512;5.386;2023-05-16T22:31:37;77385.50;;;8.78;100.00
64243;BME280;50573;51.512;5.386;2023-05-16T22:41:42;77366.72;;;8.71;100.00
64243;BME280;50573;51.512;5.386;2023-05-16T22:51:45;77357.59;;;8.63;100.00
64243;BME280;50573;51.512;5.386;2023-05-16T23:01:51;77351.19;;;8.55;100.00
64243;BME280;50573;51.512;5.386;2023-05-16T23:11:54;77335.97;;;8.44;100.00
64243;BME280;50573;51.512;5.386;2023-05-16T23:21:58;77336.47;;;8.35;100.00
64243;BME280;50573;51.512;5.386;2023-05-16T23:32:01;77324.53;;;8.24;100.00
64243;BME280;50573;51.512;5.386;2023-05-16T23:42:05;77309.53;;;8.09;100.00
64243;BME280;50573;51.512;5.386;2023-05-16T23:52:08;77276.53;;;7.89;100.00
